Cosco Kaohsiung — VREM3 — position and weather

sailwx.info

Track history (hours):
 
Tides and Currents Weather Stations Pressure Air Temp Water Temp Dewpoint Dewpoint Depression Visibility Wind Speed Wind Dir Waves Ship Positions

Cosco Kaohsiung

Last reported at 2014-Oct-21 01:29 UTC. Time now 2014-Oct-21 02:10 UTC.
Position N 22°39' E 116°41'.

Length 349 m; draft 12.2 m.

Type: Ship (hazmat cat A). MMSI: 477136800.

Date/timePositionNaut miles runAvg speedWind from/ knotsBaromVisibWave heightAir tempDewpointWater temp
2014-Oct-21 01:29N 22°39' E 116°41'1715.9
2014-Oct-21 00:24N 22°33' E 116°23'12415.4
2014-Oct-20 16:24N 22°09' E 114°12'1012.0
2014-Oct-20 15:31N 22°18' E 114°06'3 0.1
2014-Oct-19 20:06N 22°20' E 114°08'0 0.1
2014-Oct-19 19:28N 22°20' E 114°08'  
2014-Oct-14 16:22N 01°15' E 104°06'1114.0
2014-Oct-14 15:33N 01°13' E 103°55'7 6.8
2014-Oct-14 14:33N 01°12' E 103°48'5 5.0
2014-Oct-14 13:33N 01°17' E 103°46'0 0.2
2014-Oct-14 12:32N 01°17' E 103°46'0 0.0
2014-Oct-14 11:32N 01°17' E 103°46'0 0.0
2014-Oct-14 10:32N 01°17' E 103°46'0 0.0
2014-Oct-14 09:32N 01°17' E 103°46'0 0.0
2014-Oct-14 08:32N 01°17' E 103°46'0 0.0
2014-Oct-14 07:32N 01°17' E 103°46'0 0.0
2014-Oct-14 06:32N 01°17' E 103°46'0 0.0
2014-Oct-14 05:32N 01°17' E 103°46'0 0.0
2014-Oct-14 04:32N 01°17' E 103°46'0 0.0
2014-Oct-14 03:32N 01°17' E 103°46'0 0.0
2014-Oct-14 02:32N 01°17' E 103°46'0 0.0
2014-Oct-14 01:32N 01°17' E 103°46'0 0.0
2014-Oct-14 00:31N 01°17' E 103°46'0 0.0
2014-Oct-13 23:32N 01°17' E 103°46'0 0.0
2014-Oct-13 22:32N 01°17' E 103°46'0 0.0
2014-Oct-13 21:31N 01°17' E 103°46'0 0.0
2014-Oct-13 20:31N 01°17' E 103°46'0 0.0
2014-Oct-13 19:31N 01°17' E 103°46'0 0.0
2014-Oct-13 18:31N 01°17' E 103°46'0 0.0
2014-Oct-13 17:31N 01°17' E 103°46'0 0.0
2014-Oct-13 16:31N 01°17' E 103°46'0 0.0
2014-Oct-13 15:31N 01°17' E 103°46'0 0.0
2014-Oct-13 14:31N 01°17' E 103°46'0 0.0
2014-Oct-13 13:32N 01°17' E 103°46'0 0.0
2014-Oct-13 12:31N 01°17' E 103°46'0 0.0
2014-Oct-13 11:31N 01°17' E 103°46'0 0.0
2014-Oct-13 10:33N 01°17' E 103°46'1 1.5
2014-Oct-13 09:33N 01°17' E 103°45'5 4.9
2014-Oct-13 08:33N 01°13' E 103°42'8 7.7
2014-Oct-13 07:31N 01°12' E 103°34'  
Track history (hours):
 
Tides and Currents Weather Stations Pressure Air Temp Water Temp Dewpoint Dewpoint Depression Visibility Wind Speed Wind Dir Waves Ship Positions

Cosco Kaohsiung

Last reported at 2014-Oct-21 01:29 UTC. Time now 2014-Oct-21 02:10 UTC.
Position N 22°39' E 116°41'.

Length 349 m; draft 12.2 m.

Type: Ship (hazmat cat A). MMSI: 477136800.

Date/timePositionNaut miles runAvg speedWind from/ knotsBaromVisibWave heightAir tempDewpointWater temp
2014-Oct-21 01:29N 22°39' E 116°41'1715.9
2014-Oct-21 00:24N 22°33' E 116°23'12415.4
2014-Oct-20 16:24N 22°09' E 114°12'1012.0
2014-Oct-20 15:31N 22°18' E 114°06'3 0.1
2014-Oct-19 20:06N 22°20' E 114°08'0 0.1
2014-Oct-19 19:28N 22°20' E 114°08'  
2014-Oct-14 16:22N 01°15' E 104°06'1114.0
2014-Oct-14 15:33N 01°13' E 103°55'7 6.8
2014-Oct-14 14:33N 01°12' E 103°48'5 5.0
2014-Oct-14 13:33N 01°17' E 103°46'0 0.2
2014-Oct-14 12:32N 01°17' E 103°46'0 0.0
2014-Oct-14 11:32N 01°17' E 103°46'0 0.0
2014-Oct-14 10:32N 01°17' E 103°46'0 0.0
2014-Oct-14 09:32N 01°17' E 103°46'0 0.0
2014-Oct-14 08:32N 01°17' E 103°46'0 0.0
2014-Oct-14 07:32N 01°17' E 103°46'0 0.0
2014-Oct-14 06:32N 01°17' E 103°46'0 0.0
2014-Oct-14 05:32N 01°17' E 103°46'0 0.0
2014-Oct-14 04:32N 01°17' E 103°46'0 0.0
2014-Oct-14 03:32N 01°17' E 103°46'0 0.0
2014-Oct-14 02:32N 01°17' E 103°46'0 0.0
2014-Oct-14 01:32N 01°17' E 103°46'0 0.0
2014-Oct-14 00:31N 01°17' E 103°46'0 0.0
2014-Oct-13 23:32N 01°17' E 103°46'0 0.0
2014-Oct-13 22:32N 01°17' E 103°46'0 0.0
2014-Oct-13 21:31N 01°17' E 103°46'0 0.0
2014-Oct-13 20:31N 01°17' E 103°46'0 0.0
2014-Oct-13 19:31N 01°17' E 103°46'0 0.0
2014-Oct-13 18:31N 01°17' E 103°46'0 0.0
2014-Oct-13 17:31N 01°17' E 103°46'0 0.0
2014-Oct-13 16:31N 01°17' E 103°46'0 0.0
2014-Oct-13 15:31N 01°17' E 103°46'0 0.0
2014-Oct-13 14:31N 01°17' E 103°46'0 0.0
2014-Oct-13 13:32N 01°17' E 103°46'0 0.0
2014-Oct-13 12:31N 01°17' E 103°46'0 0.0
2014-Oct-13 11:31N 01°17' E 103°46'0 0.0
2014-Oct-13 10:33N 01°17' E 103°46'1 1.5
2014-Oct-13 09:33N 01°17' E 103°45'5 4.9
2014-Oct-13 08:33N 01°13' E 103°42'8 7.7
2014-Oct-13 07:31N 01°12' E 103°34'  

Dump ship's entire track history